Time;durP1;ratioP1;P1;durP2;ratioP2;P2;SDS_P1;SDS_P2;PMS_P1;PMS_P2;Temp;Humidity;BMP_temperature;BMP_pressure;BME280_temperature;BME280_humidity;BME280_pressure;Samples;Min_cycle;Max_cycle;Signal;HPM_P1;HPM_P2
2022/07/08 00:00:45;;;;;;;8.93;3.20;;;17.90;84.00;;;17.75;94.21;101618.44;4973217;28;20129;-78
2022/07/08 00:03:13;;;;;;;7.25;2.88;;;17.90;84.00;;;17.70;95.46;101618.59;4966487;28;20039;-77
2022/07/08 00:05:40;;;;;;;8.20;3.22;;;17.80;84.30;;;17.65;95.99;101632.97;4964186;28;20061;-78
2022/07/08 00:08:07;;;;;;;8.40;3.53;;;17.70;84.30;;;17.58;97.83;101630.53;4978414;28;20504;-78
2022/07/08 00:10:34;;;;;;;8.30;3.33;;;17.60;84.80;;;17.53;96.54;101629.78;4982264;28;20051;-78
2022/07/08 00:13:01;;;;;;;9.02;3.42;;;17.60;84.40;;;17.51;96.97;101623.66;4979411;28;20054;-77
2022/07/08 00:15:29;;;;;;;7.90;3.10;;;17.60;84.60;;;17.50;97.56;101618.41;4978883;28;20424;-78
2022/07/08 00:17:56;;;;;;;7.90;2.65;;;17.50;84.80;;;17.48;97.09;101631.75;4966195;28;20090;-78
2022/07/08 00:20:24;;;;;;;7.07;3.08;;;17.50;84.70;;;17.40;96.94;101634.66;4979331;28;20538;-77
2022/07/08 00:22:51;;;;;;;7.18;2.42;;;17.20;84.50;;;17.37;96.52;101629.44;4977786;28;20038;-77
2022/07/08 00:25:18;;;;;;;5.63;2.90;;;17.40;84.50;;;17.32;96.81;101631.38;4978053;28;20047;-78
2022/07/08 00:27:45;;;;;;;6.53;2.90;;;17.40;84.50;;;17.32;96.58;101626.03;4979240;28;20046;-78
2022/07/08 00:30:12;;;;;;;4.13;2.17;;;17.40;84.60;;;17.28;96.04;101641.25;4967282;28;20149;-77
2022/07/08 00:32:39;;;;;;;5.75;3.05;;;17.30;84.40;;;17.21;96.59;101633.53;4977684;28;20062;-78
2022/07/08 00:35:07;;;;;;;6.85;3.22;;;17.30;84.40;;;17.21;97.66;101634.38;4950638;28;20120;-78
2022/07/08 00:37:34;;;;;;;5.90;2.60;;;17.20;84.70;;;17.22;96.83;101636.09;4966422;28;20587;-78
2022/07/08 00:40:03;;;;;;;6.47;2.40;;;17.20;84.70;;;17.16;98.41;101638.97;4963390;28;20133;-77
2022/07/08 00:42:30;;;;;;;8.52;2.67;;;17.90;85.30;;;17.06;98.61;101645.50;4979022;28;20064;-77
2022/07/08 00:44:57;;;;;;;7.55;2.80;;;17.00;84.80;;;17.08;98.04;101654.28;4968532;28;20050;-78
2022/07/08 00:47:24;;;;;;;10.73;3.08;;;17.10;84.90;;;16.97;98.95;101639.53;4980173;28;20058;-77
2022/07/08 00:49:51;;;;;;;10.23;3.33;;;17.00;85.10;;;17.00;98.78;101650.09;4966011;28;20049;-78
2022/07/08 00:52:18;;;;;;;8.70;3.00;;;17.00;85.10;;;16.97;98.60;101642.19;4966318;28;20058;-77
2022/07/08 00:54:46;;;;;;;7.80;4.15;;;17.00;85.00;;;16.87;100.00;101652.22;4977286;28;20411;-78
2022/07/08 00:57:16;;;;;;;6.10;2.92;;;16.90;85.10;;;16.88;100.00;101661.06;4977603;28;20046;-77
2022/07/08 00:59:43;;;;;;;12.00;3.60;;;17.00;85.30;;;16.87;99.97;101657.53;4977187;28;20042;-77
2022/07/08 01:02:10;;;;;;;5.60;2.83;;;16.90;85.30;;;16.84;100.00;101652.28;4970755;28;20142;-77
2022/07/08 01:04:38;;;;;;;5.90;3.13;;;17.20;85.60;;;16.85;100.00;101656.69;4977109;28;20054;-78
2022/07/08 01:07:06;;;;;;;6.88;2.72;;;16.80;85.50;;;16.73;100.00;101657.06;4974325;28;20054;-78
2022/07/08 01:09:34;;;;;;;6.90;2.83;;;16.80;85.50;;;16.74;100.00;101648.19;4960102;28;20054;-77
2022/07/08 01:12:01;;;;;;;11.63;3.50;;;16.80;85.60;;;16.71;100.00;101646.47;4966268;28;20054;-77
2022/07/08 01:14:29;;;;;;;7.35;3.13;;;16.80;85.90;;;16.65;100.00;101651.09;4964795;28;20057;-77
2022/07/08 01:16:56;;;;;;;9.07;3.35;;;16.60;85.70;;;16.65;100.00;101652.00;4977828;28;20053;-77
2022/07/08 01:19:23;;;;;;;15.57;3.47;;;16.70;85.90;;;16.62;100.00;101662.69;4976656;28;20496;-78
2022/07/08 01:21:50;;;;;;;8.30;2.67;;;16.60;85.80;;;16.47;100.00;101661.34;4977732;28;20053;-77
2022/07/08 01:24:18;;;;;;;7.85;2.95;;;16.60;85.90;;;16.44;100.00;101667.59;4977767;28;20093;-77
2022/07/08 01:26:48;;;;;;;6.15;3.05;;;16.50;86.30;;;16.47;100.00;101664.00;4963505;28;20511;-77
2022/07/08 01:29:15;;;;;;;;;;;16.50;86.30;;;16.49;100.00;101666.63;4977896;28;20051;-77
2022/07/08 01:31:42;;;;;;;8.82;3.25;;;16.50;86.50;;;16.44;100.00;101658.78;4961489;28;19930;-78
2022/07/08 01:34:10;;;;;;;7.50;3.15;;;16.50;86.70;;;16.43;100.00;101665.88;4988727;28;20104;-78
2022/07/08 01:36:37;;;;;;;13.55;3.83;;;16.50;86.60;;;16.38;100.00;101666.91;4977644;28;20411;-77
2022/07/08 01:39:04;;;;;;;9.90;3.40;;;16.40;86.50;;;16.24;100.00;101673.50;4977038;28;21034;-77
2022/07/08 01:41:31;;;;;;;7.43;2.70;;;16.40;86.70;;;16.18;100.00;101672.78;4980800;28;20852;-77
2022/07/08 01:43:58;;;;;;;5.85;2.75;;;16.30;87.00;;;16.18;100.00;101670.13;4976610;28;20058;-78
2022/07/08 01:46:25;;;;;;;7.68;3.75;;;16.30;86.90;;;16.17;100.00;101663.94;4979495;28;20042;-78
2022/07/08 01:48:52;;;;;;;10.68;3.97;;;16.30;87.30;;;16.11;100.00;101678.22;4976879;28;20081;-77
2022/07/08 01:51:19;;;;;;;7.35;3.30;;;16.10;87.40;;;16.05;100.00;101672.22;4965139;28;20050;-77
2022/07/08 01:53:46;;;;;;;8.48;3.97;;;16.10;87.50;;;16.02;100.00;101676.69;4965472;28;20527;-77
2022/07/08 01:56:13;;;;;;;9.68;3.55;;;16.10;87.90;;;15.87;100.00;101690.31;4977068;28;20502;-77
2022/07/08 01:58:40;;;;;;;7.60;3.08;;;16.10;87.80;;;15.81;100.00;101701.97;4976658;28;20042;-77
2022/07/08 02:01:07;;;;;;;9.57;3.60;;;15.90;88.20;;;15.77;100.00;101695.00;4976430;28;20054;-77
2022/07/08 02:03:34;;;;;;;7.25;3.00;;;15.90;88.30;;;15.65;100.00;101697.94;4965469;28;20610;-77
2022/07/08 02:06:01;;;;;;;8.77;3.17;;;15.80;88.60;;;15.64;100.00;101702.38;4981498;28;20050;-77
2022/07/08 02:08:28;;;;;;;5.25;2.72;;;15.80;88.60;;;15.64;100.00;101697.09;4972126;28;20046;-79
2022/07/08 02:13:41;;;;;;;3.88;2.95;;;15.70;88.70;;;15.49;100.00;101702.75;4978547;28;20054;-77
2022/07/08 02:16:08;;;;;;;6.47;3.63;;;15.70;88.90;;;15.42;100.00;101705.53;4973998;28;20042;-77
2022/07/08 02:18:35;;;;;;;6.05;2.75;;;15.60;89.60;;;15.50;100.00;101697.41;4976577;28;20232;-77
2022/07/08 02:21:03;;;;;;;7.50;3.20;;;15.60;89.40;;;15.44;100.00;101709.00;4977443;28;20046;-77
2022/07/08 02:23:30;;;;;;;8.93;3.50;;;15.50;89.50;;;15.41;100.00;101703.78;4976108;28;20042;-77
2022/07/08 02:25:57;;;;;;;6.40;3.20;;;15.50;89.40;;;15.24;100.00;101703.31;4959915;28;20054;-78
2022/07/08 02:28:24;;;;;;;9.30;3.22;;;15.50;89.90;;;15.25;100.00;101713.00;4964235;28;20046;-77
2022/07/08 02:30:52;;;;;;;10.57;3.65;;;15.40;89.70;;;15.22;100.00;101715.72;4976402;28;20057;-77
2022/07/08 02:33:19;;;;;;;8.98;3.17;;;15.40;89.70;;;15.06;100.00;101718.69;4977135;28;20088;-77
2022/07/08 02:35:46;;;;;;;9.15;3.17;;;15.20;89.70;;;14.94;100.00;101714.53;4971472;28;20047;-77
2022/07/08 02:38:13;;;;;;;11.43;3.67;;;15.20;90.10;;;14.99;100.00;101712.66;4976394;28;20044;-77
2022/07/08 02:40:40;;;;;;;6.85;3.10;;;15.20;90.30;;;14.92;100.00;101723.41;4977682;28;20054;-77
2022/07/08 02:43:10;;;;;;;7.47;3.38;;;15.10;90.30;;;14.79;100.00;101718.34;4976558;28;20057;-77
2022/07/08 02:45:38;;;;;;;5.25;3.08;;;15.20;90.60;;;14.68;100.00;101721.19;4976718;28;20093;-78
2022/07/08 02:48:08;;;;;;;9.45;3.92;;;15.00;91.00;;;14.54;100.00;101724.13;4966091;28;20050;-77
2022/07/08 02:50:35;;;;;;;;;;;14.90;91.10;;;14.56;100.00;101732.03;4979742;28;20065;-77
2022/07/08 02:53:02;;;;;;;9.55;4.15;;;14.80;91.20;;;14.42;100.00;101738.44;4975995;28;19937;-77
2022/07/08 02:55:29;;;;;;;8.45;3.60;;;14.70;91.10;;;14.32;100.00;101734.25;4976383;28;20050;-77
2022/07/08 02:57:56;;;;;;;5.38;3.20;;;14.60;91.70;;;14.25;100.00;101737.88;4976321;28;20046;-77
2022/07/08 03:00:23;;;;;;;5.95;3.42;;;14.60;91.60;;;14.26;100.00;101742.25;4976494;28;20069;-77
2022/07/08 03:02:50;;;;;;;7.15;3.47;;;14.50;91.70;;;14.14;100.00;101746.00;4976166;28;20050;-77
2022/07/08 03:05:17;;;;;;;6.90;3.50;;;15.10;92.20;;;14.03;100.00;101739.09;4974464;28;20511;-77
2022/07/08 03:07:44;;;;;;;8.25;3.70;;;14.40;92.40;;;13.94;100.00;101741.94;4977276;28;20057;-77
2022/07/08 03:10:11;;;;;;;7.93;3.97;;;14.30;92.60;;;13.97;100.00;101744.50;4976132;28;20046;-77
2022/07/08 03:12:38;;;;;;;8.25;3.65;;;14.30;92.50;;;13.88;100.00;101736.72;4974339;28;20607;-77
2022/07/08 03:15:06;;;;;;;12.25;3.72;;;14.90;92.80;;;13.84;100.00;101741.19;4965232;28;20057;-78
2022/07/08 03:17:33;;;;;;;7.93;4.13;;;14.20;92.70;;;13.83;100.00;101741.22;4979578;28;20030;-78
2022/07/08 03:20:00;;;;;;;5.88;3.58;;;14.20;93.00;;;13.61;100.00;101746.84;4983655;28;20039;-76
2022/07/08 03:22:27;;;;;;;8.35;3.30;;;14.10;93.10;;;13.50;100.00;101751.41;4983972;28;20049;-77
2022/07/08 03:24:54;;;;;;;7.68;3.80;;;13.90;93.10;;;13.39;100.00;101754.16;4985832;28;20061;-77
2022/07/08 03:27:21;;;;;;;7.50;3.97;;;14.90;93.40;;;13.46;100.00;101755.84;4986406;28;20043;-77
2022/07/08 03:29:48;;;;;;;9.32;3.60;;;13.80;93.30;;;13.43;100.00;101763.78;4980472;28;20130;-76
2022/07/08 03:32:14;;;;;;;7.13;3.30;;;14.00;93.40;;;13.38;100.00;101769.13;4967897;28;20046;-78
2022/07/08 03:34:42;;;;;;;5.72;3.55;;;13.80;93.50;;;13.36;100.00;101773.56;4967571;28;20046;-77
2022/07/08 03:37:09;;;;;;;7.07;3.72;;;13.80;93.60;;;13.48;100.00;101769.91;4984225;28;20575;-78
2022/07/08 03:39:36;;;;;;;8.50;3.88;;;13.70;93.80;;;13.45;100.00;101770.84;4983573;28;20057;-78
2022/07/08 03:42:03;;;;;;;10.40;4.50;;;13.70;94.10;;;13.42;100.00;101772.63;4984677;28;20518;-79
2022/07/08 03:44:30;;;;;;;7.47;4.25;;;13.60;93.70;;;13.32;100.00;101780.66;4975499;28;20049;-78
2022/07/08 03:46:57;;;;;;;7.78;3.90;;;13.60;93.90;;;13.29;100.00;101775.41;4985989;28;20053;-77
2022/07/08 03:49:25;;;;;;;6.32;3.97;;;13.80;94.00;;;13.21;100.00;101776.41;4983290;28;20104;-77
2022/07/08 03:51:53;;;;;;;7.40;3.67;;;13.60;94.00;;;13.17;100.00;101776.47;5001507;28;20050;-77
2022/07/08 03:54:20;;;;;;;4.78;3.58;;;14.00;94.20;;;13.25;100.00;101783.41;4969223;28;21261;-78
2022/07/08 03:56:47;;;;;;;10.35;3.92;;;13.50;94.20;;;13.23;100.00;101788.72;4982437;28;20395;-77
2022/07/08 03:59:14;;;;;;;7.75;4.28;;;13.60;94.30;;;13.23;100.00;101793.13;4981586;28;20514;-77
2022/07/08 04:01:41;;;;;;;7.50;4.40;;;13.50;94.20;;;13.29;100.00;101791.28;4982875;28;20411;-78
2022/07/08 04:04:08;;;;;;;6.05;3.85;;;13.50;94.20;;;13.30;100.00;101786.88;4984473;28;20034;-78
2022/07/08 04:06:36;;;;;;;6.10;3.85;;;13.80;94.10;;;13.23;100.00;101788.72;4965013;28;20062;-77
2022/07/08 04:09:04;;;;;;;7.32;4.90;;;13.50;94.30;;;13.14;100.00;101796.75;4983727;28;20119;-78
2022/07/08 04:11:31;;;;;;;6.40;3.65;;;13.50;94.60;;;13.22;100.00;101797.56;4982615;28;20078;-78
2022/07/08 04:13:58;;;;;;;6.75;4.43;;;13.50;94.60;;;13.23;100.00;101801.06;4984436;28;20042;-78
2022/07/08 04:16:25;;;;;;;8.23;4.45;;;13.50;95.00;;;13.11;100.00;101797.69;4952555;28;20047;-76
2022/07/08 04:18:52;;;;;;;8.77;4.05;;;13.40;95.20;;;12.95;100.00;101810.19;4984420;28;20042;-78
2022/07/08 04:21:19;;;;;;;8.77;4.38;;;13.40;95.00;;;12.96;100.00;101808.44;4986446;28;20054;-78
2022/07/08 04:23:46;;;;;;;6.25;4.10;;;13.30;95.40;;;13.04;100.00;101807.44;4981422;28;20488;-79
2022/07/08 04:26:13;;;;;;;8.85;4.93;;;13.90;95.30;;;13.02;100.00;101811.84;4950579;28;20085;-78
2022/07/08 04:28:41;;;;;;;9.27;4.57;;;13.30;95.60;;;12.96;100.00;101809.28;4986021;28;20087;-76
2022/07/08 04:31:08;;;;;;;9.23;4.30;;;13.30;95.80;;;12.91;100.00;101801.41;4983315;28;20038;-78
2022/07/08 04:33:35;;;;;;;7.30;4.35;;;13.30;95.90;;;13.00;100.00;101794.28;4986793;28;20045;-78
2022/07/08 04:36:03;;;;;;;9.07;4.57;;;14.10;96.00;;;13.11;100.00;101800.34;4970020;28;20046;-76
2022/07/08 04:38:30;;;;;;;8.73;4.85;;;13.30;95.90;;;13.14;100.00;101807.31;4984728;28;20046;-78
2022/07/08 04:41:02;;;;;;;8.18;3.90;;;13.30;96.00;;;13.19;100.00;101808.16;5015129;28;20039;-79
2022/07/08 04:43:29;;;;;;;7.90;4.43;;;13.30;95.70;;;13.16;100.00;101810.81;4953653;28;20137;-77
2022/07/08 04:45:56;;;;;;;9.38;4.55;;;13.40;96.10;;;13.18;100.00;101815.22;4983448;28;20511;-77
2022/07/08 04:48:23;;;;;;;9.00;4.90;;;13.50;96.10;;;13.17;100.00;101823.13;4969927;28;20551;-79
2022/07/08 04:50:50;;;;;;;5.55;4.50;;;13.40;95.90;;;13.30;100.00;101823.91;4970963;28;20538;-77
2022/07/08 04:53:17;;;;;;;14.25;5.85;;;13.50;96.00;;;13.18;100.00;101825.78;4948396;28;20042;-79
2022/07/08 04:55:44;;;;;;;6.75;4.22;;;13.40;96.00;;;13.32;100.00;101820.31;4971731;28;20051;-76
2022/07/08 04:58:11;;;;;;;9.35;4.88;;;13.50;95.80;;;13.39;100.00;101822.91;4982650;28;20050;-76
2022/07/08 05:00:38;;;;;;;11.23;4.80;;;13.50;96.20;;;13.48;100.00;101822.78;4984366;28;20044;-76
2022/07/08 05:03:05;;;;;;;11.20;5.50;;;13.60;96.50;;;13.61;100.00;101823.53;4979735;28;20050;-76
2022/07/08 05:05:33;;;;;;;8.70;5.05;;;13.60;96.60;;;13.73;100.00;101827.78;4989540;28;20050;-76
2022/07/08 05:08:01;;;;;;;7.70;5.07;;;13.90;96.60;;;13.90;100.00;101819.59;4970910;28;20136;-77
2022/07/08 05:10:28;;;;;;;8.82;5.10;;;14.00;96.60;;;14.03;100.00;101828.22;4983991;28;20049;-77
2022/07/08 05:12:57;;;;;;;6.07;5.00;;;13.90;96.40;;;14.16;100.00;101831.56;4984776;28;20121;-76
2022/07/08 05:15:25;;;;;;;8.43;4.95;;;14.00;96.40;;;14.28;100.00;101831.34;4972067;28;20042;-77
2022/07/08 05:17:52;;;;;;;6.75;4.93;;;14.20;96.40;;;14.36;100.00;101825.06;4982113;28;20508;-76
2022/07/08 05:20:21;;;;;;;8.25;5.32;;;14.50;96.40;;;14.41;100.00;101831.16;4971884;28;20046;-76
2022/07/08 05:22:48;;;;;;;7.93;4.93;;;14.40;96.50;;;14.43;100.00;101826.72;4984807;28;20061;-76
2022/07/08 05:25:15;;;;;;;9.88;4.53;;;14.50;96.50;;;14.52;100.00;101830.97;4971652;28;20046;-76
2022/07/08 05:27:42;;;;;;;9.20;4.47;;;14.50;96.20;;;14.69;100.00;101828.91;4985370;28;20636;-77
2022/07/08 05:30:11;;;;;;;7.53;4.57;;;14.60;96.20;;;14.79;100.00;101834.94;4971590;28;20689;-77
2022/07/08 05:32:38;;;;;;;11.93;4.93;;;14.80;96.10;;;14.89;100.00;101833.88;4986114;28;20770;-76
2022/07/08 05:35:07;;;;;;;12.00;4.53;;;14.80;96.00;;;15.05;100.00;101824.75;4968602;28;20054;-76
2022/07/08 05:37:37;;;;;;;8.40;4.18;;;15.00;95.80;;;15.20;100.00;101824.44;4985180;28;20097;-77
2022/07/08 05:40:10;;;;;;;13.77;4.10;;;15.10;95.70;;;15.37;100.00;101833.81;4969379;28;20057;-77
2022/07/08 05:42:38;;;;;;;9.15;4.00;;;15.20;95.50;;;15.42;100.00;101835.47;4976743;28;20055;-78
2022/07/08 05:45:07;;;;;;;7.55;3.95;;;15.40;95.30;;;15.58;100.00;101828.09;4965268;28;20042;-79
2022/07/08 05:47:34;;;;;;;10.00;3.72;;;15.40;95.40;;;15.58;100.00;101822.78;4977778;28;20125;-77
2022/07/08 05:50:03;;;;;;;15.90;4.03;;;15.50;95.30;;;15.68;100.00;101842.03;4989162;28;20487;-78
2022/07/08 05:52:30;;;;;;;11.45;4.25;;;15.60;95.30;;;15.73;100.00;101834.81;4975443;28;20050;-77
2022/07/08 05:54:57;;;;;;;7.10;3.25;;;15.70;95.40;;;15.86;100.00;101848.72;4976093;28;20141;-78
2022/07/08 05:57:24;;;;;;;13.80;3.78;;;15.80;95.10;;;15.94;100.00;101850.34;4960832;28;20169;-78
2022/07/08 05:59:51;;;;;;;9.82;3.58;;;15.30;95.00;;;16.01;100.00;101849.31;4958056;28;20042;-77
2022/07/08 06:02:18;;;;;;;6.38;2.90;;;15.90;95.00;;;16.16;100.00;101856.00;4989247;28;20046;-78
2022/07/08 06:04:45;;;;;;;7.00;2.72;;;16.00;94.80;;;16.22;100.00;101855.00;4989491;28;20031;-78
2022/07/08 06:07:12;;;;;;;10.93;3.85;;;16.10;94.40;;;16.36;100.00;101862.63;4986682;28;20070;-77
2022/07/08 06:09:39;;;;;;;6.30;3.17;;;16.20;94.30;;;16.42;100.00;101860.69;4974914;28;20141;-78
2022/07/08 06:12:07;;;;;;;10.10;2.85;;;16.30;94.20;;;16.44;100.00;101865.97;4973248;28;20125;-78
2022/07/08 06:14:34;;;;;;;12.82;3.45;;;16.40;93.70;;;16.45;100.00;101873.03;4967973;28;20058;-78
2022/07/08 06:17:01;;;;;;;10.15;3.08;;;16.40;93.80;;;16.44;100.00;101864.19;4986758;28;20134;-79
2022/07/08 06:19:28;;;;;;;8.50;3.08;;;16.50;93.40;;;16.48;100.00;101870.28;4998155;28;20038;-78
2022/07/08 06:21:56;;;;;;;8.75;3.38;;;16.50;93.30;;;16.49;100.00;101872.03;4970299;28;20030;-78
2022/07/08 06:24:23;;;;;;;9.20;2.80;;;16.50;93.60;;;16.53;100.00;101868.38;4974010;28;20046;-78
2022/07/08 06:26:51;;;;;;;11.18;3.35;;;16.50;93.40;;;16.48;100.00;101870.28;4987711;28;20086;-80
2022/07/08 06:29:18;;;;;;;9.65;2.67;;;16.50;93.10;;;16.53;100.00;101870.19;4974215;28;20069;-78
2022/07/08 06:31:45;;;;;;;9.15;3.03;;;16.50;92.50;;;16.54;100.00;101871.94;4990385;28;20109;-78
2022/07/08 06:34:12;;;;;;;9.65;2.95;;;16.50;92.50;;;16.63;100.00;101874.38;4985223;28;20082;-79
2022/07/08 06:36:39;;;;;;;9.02;3.15;;;16.50;92.20;;;16.67;100.00;101870.72;4984857;28;20053;-81
2022/07/08 06:39:08;;;;;;;8.23;2.70;;;16.60;91.90;;;16.68;100.00;101867.13;4985265;28;20054;-79
2022/07/08 06:41:35;;;;;;;8.55;2.78;;;16.60;91.50;;;16.79;100.00;101877.47;4989823;28;20122;-78
2022/07/08 06:44:03;;;;;;;7.78;2.63;;;16.70;91.70;;;16.82;100.00;101880.06;4990287;28;20042;-79
2022/07/08 06:46:30;;;;;;;6.68;2.80;;;16.70;91.50;;;16.80;100.00;101875.72;4990651;28;20113;-79
2022/07/08 06:48:57;;;;;;;8.68;3.00;;;16.70;91.40;;;16.83;100.00;101868.50;4978911;28;20074;-78
2022/07/08 06:51:24;;;;;;;7.43;2.50;;;16.80;91.40;;;16.91;100.00;101878.09;4978973;28;20064;-78
2022/07/08 06:56:37;;;;;;;9.82;2.42;;;16.90;91.40;;;17.02;100.00;101884.03;4989684;28;20054;-79
2022/07/08 06:59:06;;;;;;;8.93;2.38;;;16.90;91.30;;;17.10;100.00;101886.47;4990751;28;21404;-79
2022/07/08 07:01:33;;;;;;;9.20;2.60;;;17.00;91.10;;;17.13;100.00;101875.75;4990481;28;20041;-80
2022/07/08 07:04:01;;;;;;;10.50;2.70;;;17.00;90.80;;;17.20;100.00;101879.13;4988435;28;20069;-79
2022/07/08 07:06:29;;;;;;;6.57;2.00;;;17.20;90.90;;;17.24;100.00;101883.41;4987339;28;20247;-79
2022/07/08 07:08:56;;;;;;;11.02;2.60;;;17.50;90.90;;;17.26;100.00;101878.94;4989445;28;20133;-78
2022/07/08 07:11:23;;;;;;;6.63;2.60;;;17.20;90.70;;;17.32;100.00;101888.53;4987032;28;20070;-79
2022/07/08 07:13:50;;;;;;;7.32;2.13;;;17.20;90.70;;;17.39;100.00;101892.75;4987726;28;20062;-78
2022/07/08 07:16:17;;;;;;;5.90;2.20;;;17.30;90.50;;;17.43;100.00;101889.97;4988458;28;20077;-79
2022/07/08 07:18:44;;;;;;;10.15;2.30;;;16.40;90.30;;;17.53;100.00;101895.03;4985968;28;20054;-79
2022/07/08 07:21:12;;;;;;;6.43;2.05;;;17.30;90.60;;;17.55;100.00;101895.84;4987499;28;20043;-78
2022/07/08 07:23:39;;;;;;;14.95;2.78;;;17.40;90.40;;;17.57;100.00;101884.25;4974597;28;20049;-79
2022/07/08 07:26:06;;;;;;;5.50;1.75;;;17.50;89.90;;;17.72;100.00;101887.38;4986038;28;20038;-76
2022/07/08 07:28:35;;;;;;;10.23;2.30;;;17.50;89.70;;;17.82;100.00;101890.63;4982736;28;21271;-77
2022/07/08 07:31:02;;;;;;;5.40;2.22;;;17.60;90.10;;;17.91;100.00;101887.69;4985832;28;20034;-76
2022/07/08 07:33:29;;;;;;;10.25;2.22;;;17.70;89.90;;;17.92;97.05;101889.41;4991873;28;20105;-77
2022/07/08 07:35:57;;;;;;;8.10;2.30;;;17.80;88.30;;;18.06;95.40;101889.03;4983971;28;20043;-77
2022/07/08 07:38:24;;;;;;;5.00;1.98;;;17.90;87.80;;;18.14;93.81;101889.66;4989173;28;20096;-76
2022/07/08 07:40:52;;;;;;;9.48;2.13;;;18.00;87.50;;;18.24;94.80;101890.22;4986996;28;20050;-76
2022/07/08 07:43:19;;;;;;;9.38;2.78;;;18.20;87.60;;;18.28;92.41;101889.22;4986612;28;20050;-76
2022/07/08 07:45:46;;;;;;;5.25;1.90;;;18.20;87.10;;;18.27;88.42;101889.28;4990310;28;20126;-77
2022/07/08 07:48:14;;;;;;;5.10;1.60;;;18.20;85.90;;;18.27;87.25;101887.50;4992295;28;20419;-76
2022/07/08 07:50:41;;;;;;;4.63;1.70;;;18.40;85.60;;;18.32;85.61;101886.47;4996201;28;20089;-76
2022/07/08 07:53:09;;;;;;;4.97;2.05;;;18.30;85.00;;;18.38;83.33;101879.13;5000787;28;20050;-77
2022/07/08 07:55:36;;;;;;;5.63;2.05;;;18.30;84.90;;;18.59;83.93;101878.47;4988182;28;20042;-77
2022/07/08 07:58:03;;;;;;;7.82;1.95;;;18.40;84.90;;;18.82;82.66;101883.88;4989163;28;20050;-77
2022/07/08 08:00:30;;;;;;;6.30;1.83;;;18.60;84.90;;;18.96;81.17;101878.06;4970874;28;20046;-77
2022/07/08 08:02:57;;;;;;;19.13;2.10;;;18.70;84.70;;;19.01;79.11;101885.06;4988033;28;20045;-78
2022/07/08 08:05:25;;;;;;;8.73;2.05;;;18.80;84.20;;;19.11;75.09;101879.34;4986070;28;20039;-78
2022/07/08 08:07:52;;;;;;;5.25;1.80;;;18.90;83.20;;;19.33;74.71;101877.69;4982660;28;20118;-78
2022/07/08 08:10:19;;;;;;;6.28;1.75;;;19.00;83.20;;;19.37;75.43;101879.31;4992347;28;20043;-77
2022/07/08 08:12:46;;;;;;;4.57;1.48;;;19.20;83.20;;;19.45;69.95;101881.69;4972117;28;20122;-78
2022/07/08 08:15:14;;;;;;;7.38;1.85;;;19.30;81.90;;;19.47;69.56;101880.72;4985845;28;20035;-77
2022/07/08 08:17:42;;;;;;;5.10;1.60;;;19.30;81.50;;;19.07;64.40;101872.41;4975577;28;20080;-78
2022/07/08 08:20:12;;;;;;;4.28;1.67;;;19.40;79.30;;;19.23;68.39;101878.03;4970330;28;20108;-76
2022/07/08 08:22:39;;;;;;;7.28;1.70;;;19.30;80.50;;;19.26;68.45;101877.06;4987973;28;20090;-78
2022/07/08 08:25:27;;;;;;;5.38;2.25;;;19.30;80.40;;;19.22;69.15;101878.97;4980443;28;20058;-79
2022/07/08 08:27:56;;;;;;;4.63;1.70;;;19.30;80.40;;;19.40;71.08;101885.44;4989093;28;20116;-79
2022/07/08 08:30:23;;;;;;;4.43;1.63;;;19.30;81.00;;;19.42;69.66;101888.91;4973243;28;20041;-78
2022/07/08 08:32:51;;;;;;;6.68;1.98;;;19.30;80.60;;;19.52;64.69;101885.91;4974903;28;20038;-78
2022/07/08 08:35:18;;;;;;;3.45;1.63;;;19.50;79.50;;;19.76;65.54;101880.53;4976591;28;20042;-78
2022/07/08 08:37:48;;;;;;;4.85;1.85;;;19.50;79.80;;;19.66;65.50;101893.38;4976642;28;20034;-78
2022/07/08 08:40:15;;;;;;;4.50;1.98;;;19.70;79.50;;;19.48;66.35;101893.16;5002956;28;20077;-78
2022/07/08 08:42:43;;;;;;;4.88;1.75;;;19.60;79.20;;;19.73;66.90;101894.00;4983456;28;20076;-79
2022/07/08 08:45:10;;;;;;;4.57;1.85;;;19.60;79.80;;;19.81;68.83;101894.56;4992692;28;21449;-79
2022/07/08 08:47:38;;;;;;;10.70;1.92;;;19.70;80.10;;;19.91;68.59;101887.09;4990523;28;20093;-79
2022/07/08 08:52:57;;;;;;;5.25;1.95;;;19.80;80.00;;;19.97;67.40;101884.19;4990925;28;20148;-78
2022/07/08 08:55:33;;;;;;;5.95;2.33;;;19.90;79.80;;;19.96;65.63;101887.81;4991350;28;20042;-78
2022/07/08 08:58:05;;;;;;;9.13;2.20;;;19.90;79.20;;;19.85;64.87;101880.19;4983371;28;20117;-77
2022/07/08 09:00:35;;;;;;;2.90;1.38;;;20.70;78.90;;;19.92;64.91;101889.72;4964521;28;20144;-78
2022/07/08 09:03:03;;;;;;;9.82;2.83;;;19.80;78.40;;;19.98;62.17;101885.94;4982884;28;20052;-77
2022/07/08 09:05:32;;;;;;;7.28;1.92;;;19.90;78.00;;;19.99;58.79;101885.00;4985536;28;20034;-78
2022/07/08 09:07:59;;;;;;;4.45;1.60;;;19.90;76.80;;;19.97;57.98;101892.22;4996826;28;20499;-78
2022/07/08 09:10:26;;;;;;;4.53;1.70;;;19.90;76.40;;;19.75;56.33;101882.34;4984328;28;21068;-78
2022/07/08 09:13:16;;;;;;;4.97;2.10;;;19.90;75.30;;;19.92;56.37;101886.19;4986260;28;20042;-79
2022/07/08 09:15:48;;;;;;;4.70;2.00;;;19.80;75.60;;;20.04;56.92;101890.19;4953602;28;20077;-77
2022/07/08 09:18:18;;;;;;;6.57;2.30;;;19.90;76.00;;;20.17;59.24;101883.41;4969129;28;20503;-79
2022/07/08 09:20:57;;;;;;;6.38;1.90;;;19.90;76.80;;;20.31;57.36;101887.31;4981584;28;20046;-77
2022/07/08 09:23:28;;;;;;;5.47;2.00;;;20.10;76.20;;;20.27;56.48;101883.91;4968337;28;20050;-79
2022/07/08 09:26:00;;;;;;;4.53;2.03;;;20.20;75.70;;;20.30;56.94;101886.44;4952872;28;20053;-80
2022/07/08 09:28:43;;;;;;;6.05;1.95;;;20.20;75.60;;;20.39;55.88;101893.22;4987452;28;20466;-80
2022/07/08 09:31:15;;;;;;;3.67;2.08;;;20.30;75.20;;;20.36;54.16;101891.53;4984479;28;20039;-80
2022/07/08 09:33:43;;;;;;;4.05;1.83;;;20.30;74.40;;;20.32;55.66;101892.59;4971400;28;20445;-79
2022/07/08 09:36:11;;;;;;;5.15;1.60;;;20.30;74.90;;;20.49;57.88;101901.72;4969312;28;20049;-79
2022/07/08 09:38:40;;;;;;;5.47;2.00;;;20.30;76.00;;;20.72;56.57;101898.06;4955967;28;20455;-79
2022/07/08 09:41:16;;;;;;;6.68;1.95;;;20.40;75.70;;;20.90;56.01;101895.56;4985663;28;20255;-78
2022/07/08 09:43:49;;;;;;;5.63;1.63;;;20.50;75.60;;;20.97;56.63;101897.06;4981554;28;20129;-79
2022/07/08 09:46:18;;;;;;;7.18;1.98;;;20.70;75.70;;;21.16;55.49;101885.53;4983232;28;20046;-79
2022/07/08 09:48:45;;;;;;;5.15;1.70;;;20.80;75.40;;;21.28;53.84;101878.75;4978410;28;20130;-78
2022/07/08 09:51:16;;;;;;;4.63;1.50;;;20.90;74.70;;;21.46;50.95;101883.25;4970368;28;20049;-78
2022/07/08 09:53:43;;;;;;;5.93;1.60;;;21.10;73.50;;;21.61;51.45;101872.78;4986106;28;20415;-79
2022/07/08 09:56:10;;;;;;;4.97;1.98;;;21.20;73.70;;;21.38;49.95;101877.41;4971374;28;20060;-78
2022/07/08 09:58:38;;;;;;;5.00;1.63;;;21.30;72.20;;;21.62;51.84;101875.41;4970024;28;20129;-76
2022/07/08 10:01:07;;;;;;;8.13;1.95;;;21.40;73.50;;;21.52;49.27;101877.63;4978444;28;20038;-77
2022/07/08 10:03:35;;;;;;;5.82;2.10;;;21.40;72.40;;;21.49;49.91;101872.44;4976387;28;20046;-77
2022/07/08 10:06:04;;;;;;;5.10;1.60;;;21.40;72.00;;;21.57;50.51;101873.88;4989418;28;20042;-77
2022/07/08 10:08:32;;;;;;;7.68;2.00;;;21.40;72.30;;;21.46;50.44;101875.22;4983899;28;20089;-77
2022/07/08 10:11:05;;;;;;;4.85;1.60;;;21.40;71.90;;;21.50;49.98;101878.63;4983758;28;20046;-77
2022/07/08 10:13:34;;;;;;;5.32;1.80;;;21.40;71.60;;;21.48;51.45;101883.19;4964115;28;20054;-77
2022/07/08 10:16:04;;;;;;;8.35;2.15;;;21.40;72.30;;;21.47;52.65;101879.66;4970496;28;20049;-77
2022/07/08 10:18:49;;;;;;;4.55;1.65;;;21.30;72.80;;;21.44;50.79;101874.44;4959002;28;20746;-77